Ussuriysk, Russia
Current Conditions -  °F | °C
As of 11:30 AM on Thursday 27 Nov 2014 (Local Time) from UHWW Reporting Station
Overcast Overcast  
Wind Chill: 38°   Ceiling: 1400
Heat Index: 41°   Visibility: 6mi
Dew Point: 28°   Wind: 4mph
Humidity: 61%   Direction: 100°E
Pressure: 30.21"   Gusts: NA
Location:  43.8°N, 132.01°E
Report Text: UHWW 270130Z 10002MPS 070V130 9999 OVC014 05/M02 Q1023 NOSIGRMK QFE766/1021 25CLRD70
Loading
Personal Weather Stations






























Interactive Weather Map New forecast layout! Learn more

10-Day Weather Forecast

Advertisements
Track Severe Weather on mobile